Time;durP1;ratioP1;P1;durP2;ratioP2;P2;SDS_P1;SDS_P2;PMS_P1;PMS_P2;Temp;Humidity;BMP_temperature;BMP_pressure;BME280_temperature;BME280_humidity;BME280_pressure;Samples;Min_cycle;Max_cycle;Signal;HPM_P1;HPM_P2
2022/09/24 00:00:10;;;;;;;8.45;4.28;;;;;;;11.79;100.00;100363.19;6019165;29;20041;-89
2022/09/24 00:03:12;;;;;;;7.95;4.25;;;;;;;11.76;100.00;100366.88;6045936;29;20487;-89
2022/09/24 00:06:14;;;;;;;5.38;4.10;;;;;;;11.73;100.00;100367.16;6031631;29;20054;-89
2022/09/24 00:09:20;;;;;;;5.57;3.95;;;;;;;11.71;100.00;100368.25;6027944;29;20109;-89
2022/09/24 00:12:24;;;;;;;4.53;3.67;;;;;;;11.67;100.00;100372.84;6021312;29;20575;-89
2022/09/24 00:15:26;;;;;;;6.45;4.05;;;;;;;11.67;100.00;100372.03;6021154;29;20046;-89
2022/09/24 00:18:28;;;;;;;9.15;5.97;;;;;;;11.66;100.00;100363.44;6025050;29;20057;-89
2022/09/24 00:21:37;;;;;;;6.55;5.15;;;;;;;11.64;100.00;100371.34;6019398;29;20049;-89
2022/09/24 00:28:00;;;;;;;6.25;3.97;;;;;;;11.60;100.00;100366.53;6018658;29;20128;-89
2022/09/24 00:31:06;;;;;;;4.32;3.92;;;;;;;11.59;100.00;100359.72;6025621;29;20049;-89
2022/09/24 00:34:08;;;;;;;6.03;3.90;;;;;;;11.59;100.00;100357.13;6032519;29;20049;-89
2022/09/24 00:37:10;;;;;;;4.20;3.80;;;;;;;11.61;100.00;100355.25;6017337;29;20049;-89
2022/09/24 00:40:14;;;;;;;4.38;3.83;;;;;;;11.66;100.00;100363.44;6029906;29;20430;-89
2022/09/24 00:43:47;;;;;;;5.85;4.20;;;;;;;11.69;100.00;100355.38;6016825;29;20651;-89
2022/09/24 00:46:49;;;;;;;5.32;4.00;;;;;;;11.72;100.00;100356.91;6008298;29;20176;-89
2022/09/24 00:49:55;;;;;;;3.70;3.20;;;;;;;11.71;100.00;100356.09;6015345;29;20066;-90
2022/09/24 00:53:06;;;;;;;4.03;3.63;;;;;;;11.69;100.00;100350.22;6011393;29;20050;-89
2022/09/24 00:56:11;;;;;;;3.92;3.53;;;;;;;11.68;100.00;100348.56;6012973;29;20057;-89
2022/09/24 00:59:16;;;;;;;3.83;3.50;;;;;;;11.69;100.00;100351.97;6015839;29;20068;-89
2022/09/24 01:02:18;;;;;;;3.78;3.33;;;;;;;11.68;100.00;100353.75;6000498;29;20472;-89
2022/09/24 01:05:19;;;;;;;5.38;3.83;;;;;;;11.66;100.00;100353.06;5999524;29;20084;-89
2022/09/24 01:08:21;;;;;;;3.80;3.40;;;;;;;11.65;100.00;100351.41;6001358;29;20092;-89
2022/09/24 01:11:35;;;;;;;5.47;3.80;;;;;;;11.62;100.00;100351.69;6019271;29;20061;-90
2022/09/24 01:14:38;;;;;;;4.28;3.85;;;;;;;11.56;100.00;100350.44;6022628;29;20045;-89
2022/09/24 01:17:51;;;;;;;6.00;4.15;;;;;;;11.54;100.00;100346.34;6012980;29;20062;-89
2022/09/24 01:21:19;;;;;;;7.45;4.35;;;;;;;11.56;100.00;100350.44;6009006;29;20161;-90
2022/09/24 01:24:34;;;;;;;5.38;4.30;;;;;;;11.54;100.00;100341.97;6013865;29;20062;-90
2022/09/24 01:28:04;;;;;;;8.18;5.15;;;;;;;11.56;100.00;100345.25;6019515;29;20045;-89
2022/09/24 01:31:32;;;;;;;5.95;5.18;;;;;;;11.57;100.00;100343.47;6009958;29;20049;-89
2022/09/24 01:34:46;;;;;;;4.63;4.22;;;;;;;11.59;100.00;100346.78;5996297;29;20058;-89
2022/09/24 01:37:53;;;;;;;6.40;4.60;;;;;;;11.58;100.00;100340.78;6002279;29;21148;-89
2022/09/24 01:41:03;;;;;;;6.38;4.22;;;;;;;11.59;100.00;100341.59;5989011;29;20133;-90
2022/09/24 01:44:06;;;;;;;6.05;4.85;;;;;;;11.58;100.00;100337.38;6000195;29;20050;-89
2022/09/24 01:47:08;;;;;;;4.40;4.00;;;;;;;11.56;100.00;100334.09;6007820;29;20054;-89
2022/09/24 01:50:15;;;;;;;5.75;4.70;;;;;;;11.52;100.00;100338.69;5997672;29;20061;-88
2022/09/24 01:53:28;;;;;;;6.55;4.05;;;;;;;11.49;100.00;100335.56;5981251;29;20699;-89
2022/09/24 01:56:41;;;;;;;5.10;4.35;;;;;;;11.44;100.00;100333.34;5996085;29;20327;-90
2022/09/24 01:59:54;;;;;;;6.53;4.82;;;;;;;11.39;100.00;100330.34;6009977;29;20147;-90
2022/09/24 02:03:07;;;;;;;4.80;4.13;;;;;;;11.36;100.00;100322.84;6003674;29;20489;-90
2022/09/24 02:06:19;;;;;;;5.72;4.32;;;;;;;11.28;100.00;100323.50;5995359;29;20461;-90
2022/09/24 02:09:33;;;;;;;5.40;4.90;;;;;;;11.26;100.00;100321.97;5991041;29;20054;-90
2022/09/24 02:12:40;;;;;;;5.95;4.60;;;;;;;11.24;100.00;100322.09;6020906;29;20061;-90
2022/09/24 02:15:47;;;;;;;5.22;4.72;;;;;;;11.24;100.00;100316.09;6016512;29;20050;-91
2022/09/24 02:18:53;;;;;;;5.32;4.82;;;;;;;11.21;100.00;100317.19;6019636;29;20049;-91
2022/09/24 02:21:56;;;;;;;7.03;4.70;;;;;;;11.20;100.00;100318.13;6035323;29;20085;-91
2022/09/24 02:25:03;;;;;;;5.70;5.07;;;;;;;11.20;100.00;100318.97;6026071;29;20041;-92
2022/09/24 02:28:05;;;;;;;6.30;5.05;;;;;;;11.17;100.00;100320.97;6026216;29;20519;-93
2022/09/24 02:31:30;;;;;;;7.45;5.40;;;;;;;11.15;100.00;100323.69;6020490;29;20053;-93
2022/09/24 02:34:37;;;;;;;6.15;5.55;;;;;;;11.13;100.00;100314.41;6014373;29;20050;-93
2022/09/24 02:37:43;;;;;;;7.40;5.80;;;;;;;11.13;100.00;100310.06;6014715;29;20431;-92
2022/09/24 02:40:46;;;;;;;5.50;5.00;;;;;;;11.13;100.00;100317.00;6016586;29;20046;-93
2022/09/24 02:43:49;;;;;;;7.10;5.72;;;;;;;11.10;100.00;100319.84;6017893;29;20415;-93
2022/09/24 02:46:51;;;;;;;6.50;5.45;;;;;;;11.08;100.00;100316.56;6036939;29;20041;-93
2022/09/24 02:49:54;;;;;;;7.30;5.68;;;;;;;11.06;100.00;100306.34;6003525;29;20093;-92
2022/09/24 02:52:57;;;;;;;7.05;5.85;;;;;;;11.04;100.00;100315.19;6019789;29;20142;-92
2022/09/24 02:56:00;;;;;;;6.47;5.78;;;;;;;11.01;100.00;100313.69;6017194;29;20045;-92
2022/09/24 02:59:03;;;;;;;5.93;5.32;;;;;;;11.04;100.00;100303.06;6017184;29;20053;-93
2022/09/24 03:02:06;;;;;;;6.80;6.13;;;;;;;11.01;100.00;100302.53;6015937;29;20064;-93
2022/09/24 03:05:08;;;;;;;6.63;5.90;;;;;;;11.02;100.00;100304.97;6017176;29;20046;-92
2022/09/24 03:08:10;;;;;;;9.18;7.05;;;;;;;10.99;100.00;100303.44;6022476;29;20394;-91
2022/09/24 03:11:12;;;;;;;7.97;6.18;;;;;;;10.97;100.00;100300.16;6024554;29;20125;-93
2022/09/24 03:14:19;;;;;;;7.88;6.88;;;;;;;10.93;100.00;100296.22;6025988;29;20452;-92
2022/09/24 03:17:21;;;;;;;8.05;7.10;;;;;;;10.90;100.00;100301.63;6016845;29;20117;-92
2022/09/24 03:20:23;;;;;;;7.05;6.10;;;;;;;10.87;100.00;100299.31;6018171;29;20829;-92
2022/09/24 03:23:25;;;;;;;7.53;6.72;;;;;;;10.90;100.00;100293.03;6018788;29;20078;-92
2022/09/24 03:26:27;;;;;;;7.22;6.53;;;;;;;10.91;100.00;100295.50;6010697;29;20046;-93
2022/09/24 03:32:49;;;;;;;7.18;6.47;;;;;;;10.87;100.00;100288.94;6010652;29;20531;-92
2022/09/24 03:36:23;;;;;;;10.40;6.13;;;;;;;10.88;100.00;100289.75;6015005;29;20049;-92
2022/09/24 03:39:25;;;;;;;7.80;6.68;;;;;;;10.84;100.00;100284.03;5960435;29;20526;-93
2022/09/24 03:42:26;;;;;;;7.28;6.55;;;;;;;10.82;100.00;100285.91;5973378;29;20106;-92
2022/09/24 03:45:28;;;;;;;9.15;6.00;;;;;;;10.81;100.00;100286.88;5965865;29;20043;-92
2022/09/24 03:48:30;;;;;;;6.93;5.95;;;;;;;10.80;100.00;100287.00;5957335;29;20452;-91
2022/09/24 03:51:32;;;;;;;9.15;6.28;;;;;;;10.77;100.00;100293.25;5964287;29;20058;-91
2022/09/24 03:54:34;;;;;;;8.07;6.32;;;;;;;10.75;100.00;100287.38;5978823;29;20560;-92
2022/09/24 03:57:36;;;;;;;8.02;6.57;;;;;;;10.72;100.00;100285.88;5947632;29;20622;-92
2022/09/24 04:00:37;;;;;;;7.72;6.28;;;;;;;10.71;100.00;100283.44;5977064;29;20085;-92
2022/09/24 04:03:42;;;;;;;8.13;6.10;;;;;;;10.70;100.00;100281.75;5957004;29;20049;-92
2022/09/24 04:06:43;;;;;;;7.05;5.82;;;;;;;10.70;100.00;100281.75;5962131;29;20054;-92
2022/09/24 04:09:45;;;;;;;8.38;6.78;;;;;;;10.68;100.00;100271.56;5973244;29;20069;-92
2022/09/24 04:12:47;;;;;;;7.93;6.57;;;;;;;10.64;100.00;100271.94;5960824;29;20058;-92
2022/09/24 04:15:50;;;;;;;7.72;6.32;;;;;;;10.64;100.00;100272.75;5999620;29;20109;-92
2022/09/24 04:18:54;;;;;;;9.05;7.40;;;;;;;10.64;100.00;100261.59;6016000;29;20405;-92
2022/09/24 04:21:56;;;;;;;8.75;7.18;;;;;;;10.61;100.00;100264.41;6020204;29;20045;-92
2022/09/24 04:24:58;;;;;;;9.05;8.02;;;;;;;10.57;100.00;100262.06;6020830;29;20124;-92
2022/09/24 04:28:02;;;;;;;9.88;7.60;;;;;;;10.54;100.00;100261.53;6028980;29;20042;-92
2022/09/24 04:31:04;;;;;;;8.27;7.30;;;;;;;10.54;100.00;100262.34;6018387;29;20049;-92
2022/09/24 04:34:08;;;;;;;7.55;6.53;;;;;;;10.52;100.00;100255.66;6004948;29;20526;-92
2022/09/24 04:37:10;;;;;;;10.18;7.15;;;;;;;10.51;100.00;100261.78;6012396;29;20237;-92
2022/09/24 04:40:13;;;;;;;10.77;6.95;;;;;;;10.50;100.00;100263.53;6032457;29;20056;-92
2022/09/24 04:43:17;;;;;;;7.78;6.95;;;;;;;10.50;100.00;100263.53;6010490;29;20102;-91
2022/09/24 04:46:19;;;;;;;8.88;7.05;;;;;;;10.52;100.00;100259.06;6000223;29;20359;-92
2022/09/24 04:49:23;;;;;;;7.50;6.65;;;;;;;10.52;100.00;100258.25;6029784;29;20127;-92
2022/09/24 04:52:28;;;;;;;8.38;7.30;;;;;;;10.51;100.00;100262.59;6017314;29;20065;-92
2022/09/24 04:55:31;;;;;;;12.48;8.10;;;;;;;10.50;100.00;100265.31;6035462;29;20663;-92
2022/09/24 04:58:33;;;;;;;10.18;8.15;;;;;;;10.48;100.00;100256.84;6014383;29;20053;-92
2022/09/24 05:01:35;;;;;;;9.18;8.07;;;;;;;10.45;100.00;100255.34;6022004;29;20068;-92
2022/09/24 05:04:37;;;;;;;9.45;8.43;;;;;;;10.46;100.00;100256.16;6027055;29;20037;-92
2022/09/24 05:07:40;;;;;;;11.60;9.38;;;;;;;10.48;100.00;100262.88;6039293;29;20504;-92
2022/09/24 05:10:42;;;;;;;13.65;10.65;;;;;;;10.49;100.00;100261.09;6019978;29;20046;-93
2022/09/24 05:13:44;;;;;;;14.07;10.60;;;;;;;10.49;100.00;100258.50;6032432;29;20041;-92
2022/09/24 05:16:46;;;;;;;13.82;10.82;;;;;;;10.50;100.00;100260.94;6032293;29;20041;-92
2022/09/24 05:19:48;;;;;;;11.60;9.48;;;;;;;10.54;100.00;100264.13;6023037;29;20046;-92
2022/09/24 05:22:51;;;;;;;10.32;8.52;;;;;;;10.57;100.00;100269.03;6017621;29;20033;-92
2022/09/24 05:29:13;;;;;;;9.27;7.03;;;;;;;10.60;100.00;100281.72;6039974;29;20053;-92
2022/09/24 05:32:18;;;;;;;9.88;7.45;;;;;;;10.64;100.00;100287.47;6028760;29;20052;-92
2022/09/24 05:35:22;;;;;;;9.57;7.88;;;;;;;10.61;100.00;100287.69;6032167;29;20528;-92
2022/09/24 05:38:25;;;;;;;12.50;8.07;;;;;;;10.64;100.00;100279.69;6042897;29;20607;-92
2022/09/24 05:41:27;;;;;;;8.35;7.35;;;;;;;10.68;100.00;100286.25;6024185;29;20049;-92
2022/09/24 05:44:30;;;;;;;9.95;7.63;;;;;;;10.71;100.00;100278.25;6019481;29;20065;-92
2022/09/24 05:47:32;;;;;;;10.98;7.80;;;;;;;10.72;100.00;100272.91;6032214;29;20057;-92
2022/09/24 05:50:34;;;;;;;10.65;8.05;;;;;;;10.77;100.00;100272.53;6028573;29;20503;-92
2022/09/24 05:53:36;;;;;;;9.45;8.02;;;;;;;10.82;100.00;100288.50;6042853;29;20045;-93
2022/09/24 05:56:38;;;;;;;9.45;7.70;;;;;;;10.85;100.00;100287.44;6039798;29;20056;-92
2022/09/24 05:59:40;;;;;;;11.98;7.25;;;;;;;10.87;100.00;100283.75;6021798;29;20078;-92
2022/09/24 06:02:42;;;;;;;10.07;7.35;;;;;;;10.90;100.00;100280.91;6026726;29;20595;-91
2022/09/24 06:05:47;;;;;;;8.48;7.32;;;;;;;10.92;100.00;100286.78;6019023;29;20047;-92
2022/09/24 06:08:49;;;;;;;10.32;6.88;;;;;;;10.96;100.00;100283.00;6017308;29;20046;-92
2022/09/24 06:11:52;;;;;;;9.77;7.63;;;;;;;10.99;100.00;100281.91;6022433;29;20057;-91
2022/09/24 06:14:54;;;;;;;8.70;7.13;;;;;;;11.04;100.00;100284.94;6046282;29;20049;-92
2022/09/24 06:17:57;;;;;;;11.77;7.18;;;;;;;11.06;100.00;100288.22;6016609;29;20113;-91
2022/09/24 06:21:03;;;;;;;9.77;6.60;;;;;;;11.09;100.00;100290.53;6035033;29;20045;-91
2022/09/24 06:24:05;;;;;;;7.07;5.78;;;;;;;11.13;100.00;100285.91;6022635;29;20037;-92
2022/09/24 06:27:07;;;;;;;7.78;6.40;;;;;;;11.18;100.00;100291.53;6018444;29;20041;-91
2022/09/24 06:30:10;;;;;;;7.18;6.25;;;;;;;11.23;100.00;100294.56;6036633;29;20052;-92
2022/09/24 06:33:12;;;;;;;8.00;6.63;;;;;;;11.29;100.00;100293.22;6033066;29;20353;-92
2022/09/24 06:36:14;;;;;;;7.57;6.25;;;;;;;11.36;100.00;100292.53;6022518;29;20057;-92
2022/09/24 06:39:17;;;;;;;8.32;6.30;;;;;;;11.45;100.00;100297.88;6026998;29;20050;-91
2022/09/24 06:42:19;;;;;;;7.53;6.72;;;;;;;11.54;100.00;100297.09;6017841;29;20108;-92
2022/09/24 06:45:21;;;;;;;9.25;7.55;;;;;;;11.61;100.00;100298.22;6027590;29;20038;-92
2022/09/24 06:48:25;;;;;;;8.23;6.93;;;;;;;11.70;100.00;100300.00;6021774;29;20083;-92
2022/09/24 06:51:27;;;;;;;10.05;6.93;;;;;;;11.80;100.00;100292.22;6026085;29;20037;-92
2022/09/24 06:54:29;;;;;;;10.07;7.20;;;;;;;11.89;100.00;100285.44;6022305;29;20497;-92
2022/09/24 06:57:31;;;;;;;9.80;6.70;;;;;;;11.99;100.00;100288.84;6025945;29;20049;-91
2022/09/24 07:00:34;;;;;;;7.43;6.47;;;;;;;12.12;100.00;100285.97;6021254;29;20409;-91
2022/09/24 07:03:37;;;;;;;8.77;7.57;;;;;;;12.25;100.00;100291.72;6021389;29;20058;-91
2022/09/24 07:10:09;;;;;;;8.25;7.28;;;;;;;12.50;100.00;100285.97;6022484;29;20045;-91
2022/09/24 07:13:13;;;;;;;10.43;7.13;;;;;;;12.62;100.00;100288.38;6016004;29;20046;-91
2022/09/24 07:16:15;;;;;;;8.43;6.90;;;;;;;12.75;100.00;100288.09;6033243;29;20546;-92
2022/09/24 07:19:17;;;;;;;9.45;6.72;;;;;;;12.89;100.00;100292.81;6000935;29;20045;-91
2022/09/24 07:22:20;;;;;;;8.95;7.03;;;;;;;13.03;100.00;100291.56;6013188;29;20041;-92
2022/09/24 07:25:23;;;;;;;7.45;6.63;;;;;;;13.14;100.00;100292.19;6011606;29;20041;-92
2022/09/24 07:28:25;;;;;;;9.98;6.80;;;;;;;13.30;100.00;100298.56;6019542;29;20057;-92
2022/09/24 07:31:28;;;;;;;9.70;7.47;;;;;;;13.40;100.00;100293.34;6029408;29;20104;-92
2022/09/24 07:34:30;;;;;;;9.38;7.40;;;;;;;13.52;100.00;100300.78;6018774;29;20448;-91
2022/09/24 07:37:33;;;;;;;10.00;6.85;;;;;;;13.63;100.00;100302.34;6025689;29;20052;-92
2022/09/24 07:40:35;;;;;;;9.40;7.30;;;;;;;13.72;100.00;100309.28;6012355;29;20443;-91
2022/09/24 07:43:37;;;;;;;9.50;6.68;;;;;;;13.82;100.00;100298.81;6030679;29;20212;-91
2022/09/24 07:46:47;;;;;;;9.35;7.50;;;;;;;13.92;100.00;100303.94;6024864;29;20080;-91
2022/09/24 07:49:49;;;;;;;8.47;7.37;;;;;;;13.99;100.00;100307.59;6021874;29;20069;-91
2022/09/24 07:52:51;;;;;;;8.63;7.47;;;;;;;14.04;100.00;100301.94;6011379;29;20056;-92
2022/09/24 07:55:58;;;;;;;9.43;7.40;;;;;;;14.10;100.00;100304.75;6019507;29;20483;-91
2022/09/24 07:59:00;;;;;;;8.52;7.20;;;;;;;14.20;100.00;100312.50;6015334;29;20349;-91
2022/09/24 08:02:02;;;;;;;11.52;7.63;;;;;;;14.29;100.00;100303.78;6015198;29;20515;-91
2022/09/24 08:05:05;;;;;;;10.00;7.35;;;;;;;14.36;100.00;100304.81;6019569;29;20030;-91
2022/09/24 08:08:06;;;;;;;9.77;6.63;;;;;;;14.44;100.00;100314.47;6010213;29;20510;-91
2022/09/24 08:11:15;;;;;;;9.57;7.05;;;;;;;14.48;100.00;100317.59;6012185;29;20045;-91
2022/09/24 08:14:17;;;;;;;8.65;7.20;;;;;;;14.50;100.00;100316.47;6032984;29;20061;-91
2022/09/24 08:17:19;;;;;;;9.30;6.70;;;;;;;14.55;100.00;100316.84;6018490;29;20049;-91
2022/09/24 08:20:23;;;;;;;7.80;6.70;;;;;;;14.58;100.00;100313.97;6022844;29;20156;-91
2022/09/24 08:23:26;;;;;;;8.70;7.20;;;;;;;14.60;100.00;100317.22;6016049;29;20057;-91
2022/09/24 08:26:28;;;;;;;8.05;6.50;;;;;;;14.61;100.00;100321.47;6012527;29;20082;-91
2022/09/24 08:29:30;;;;;;;10.75;7.28;;;;;;;14.65;100.00;100320.19;6015456;29;20069;-91
2022/09/24 08:32:32;;;;;;;8.32;7.10;;;;;;;14.71;100.00;100323.13;6010021;29;20053;-90
2022/09/24 08:35:35;;;;;;;8.38;6.65;;;;;;;14.78;100.00;100326.78;6009618;29;20546;-91
2022/09/24 08:38:37;;;;;;;10.07;6.28;;;;;;;14.83;100.00;100320.16;6011638;29;20128;-91
2022/09/24 08:41:54;;;;;;;8.43;6.45;;;;;;;14.91;100.00;100323.78;6007933;29;20090;-91
2022/09/24 08:48:23;;;;;;;7.95;6.55;;;;;;;15.04;100.00;100331.97;6015911;29;20425;-90
2022/09/24 08:51:29;;;;;;;7.53;6.22;;;;;;;15.08;100.00;100322.91;6016794;29;20038;-91
2022/09/24 08:54:35;;;;;;;7.85;5.95;;;;;;;15.06;100.00;100324.84;6007687;29;20419;-90
2022/09/24 08:57:48;;;;;;;8.38;6.90;;;;;;;14.96;100.00;100324.94;6022853;29;20052;-90
2022/09/24 09:00:55;;;;;;;8.52;6.25;;;;;;;14.93;100.00;100337.44;6014924;29;20045;-91
2022/09/24 09:04:23;;;;;;;11.88;6.75;;;;;;;14.94;100.00;100339.09;6015129;29;20061;-91
2022/09/24 09:07:33;;;;;;;8.65;6.25;;;;;;;14.94;100.00;100339.91;6017000;29;20053;-90
2022/09/24 09:10:39;;;;;;;6.65;6.00;;;;;;;14.94;100.00;100352.13;6019425;29;20157;-93
2022/09/24 09:14:04;;;;;;;8.02;6.40;;;;;;;14.96;100.00;100350.19;6019740;29;20050;-90
2022/09/24 09:17:35;;;;;;;7.18;6.45;;;;;;;15.00;100.00;100341.06;5963931;29;20062;-90
2022/09/24 09:20:39;;;;;;;9.73;7.72;;;;;;;15.06;100.00;100356.13;5952119;29;20062;-90
2022/09/24 09:23:47;;;;;;;9.15;7.00;;;;;;;15.16;100.00;100359.44;5968684;29;20042;-90
2022/09/24 09:26:55;;;;;;;10.50;7.57;;;;;;;15.22;100.00;100355.38;5977125;29;20235;-90
2022/09/24 09:30:01;;;;;;;8.02;7.10;;;;;;;15.16;100.00;100362.03;5962939;29;20746;-91
2022/09/24 09:33:15;;;;;;;10.93;7.60;;;;;;;15.14;100.00;100361.38;5971754;29;20188;-91
2022/09/24 09:36:40;;;;;;;9.48;7.30;;;;;;;15.01;100.00;100363.59;5981958;29;20058;-91
2022/09/24 09:39:42;;;;;;;12.02;7.88;;;;;;;14.85;100.00;100359.06;5975686;29;20273;-91
2022/09/24 09:42:44;;;;;;;11.90;7.30;;;;;;;14.78;100.00;100358.88;5982115;29;21065;-92
2022/09/24 09:46:04;;;;;;;10.20;6.85;;;;;;;14.82;100.00;100354.97;5961797;29;20053;-92
2022/09/24 09:49:06;;;;;;;8.82;7.57;;;;;;;14.83;100.00;100351.41;5970605;29;20538;-92
2022/09/24 09:52:15;;;;;;;9.95;7.50;;;;;;;14.89;100.00;100360.41;5970885;29;20050;-93
2022/09/24 09:55:30;;;;;;;9.20;7.22;;;;;;;14.92;100.00;100367.09;6018791;29;20478;-92
2022/09/24 09:58:43;;;;;;;8.57;7.22;;;;;;;14.90;100.00;100358.63;6017622;29;20045;-93
2022/09/24 10:01:48;;;;;;;10.30;7.93;;;;;;;15.02;100.00;100363.41;6021214;29;20439;-94
2022/09/24 10:04:56;;;;;;;11.65;8.40;;;;;;;15.23;100.00;100359.63;6024785;29;20048;-92
2022/09/24 10:07:58;;;;;;;10.55;8.30;;;;;;;15.55;100.00;100364.16;6028842;29;20092;-94
2022/09/24 10:11:02;;;;;;;11.38;8.70;;;;;;;15.95;100.00;100354.84;6016274;29;20038;-93
2022/09/24 10:14:08;;;;;;;9.63;8.25;;;;;;;16.29;100.00;100352.09;6023130;29;20046;-93
2022/09/24 10:17:17;;;;;;;12.18;7.95;;;;;;;16.44;100.00;100351.44;6009481;29;20053;-93
2022/09/24 10:20:28;;;;;;;14.68;9.55;;;;;;;16.58;100.00;100354.22;6014227;29;20054;-93
2022/09/24 10:23:36;;;;;;;14.50;9.60;;;;;;;16.69;100.00;100354.88;6017665;29;20046;-93
2022/09/24 10:26:41;;;;;;;13.90;9.10;;;;;;;16.81;100.00;100350.97;6004946;29;20520;-93
2022/09/24 10:33:07;;;;;;;10.32;7.60;;;;;;;16.63;100.00;100348.50;6017010;29;20049;-92
2022/09/24 10:36:20;;;;;;;9.30;6.95;;;;;;;16.48;100.00;100348.34;6026650;29;20049;-92
2022/09/24 10:39:22;;;;;;;10.55;6.97;;;;;;;16.39;100.00;100343.28;6024268;29;20840;-92
2022/09/24 10:42:28;;;;;;;9.68;6.75;;;;;;;16.30;100.00;100343.31;6019179;29;20061;-92
2022/09/24 10:45:43;;;;;;;10.68;7.20;;;;;;;16.20;100.00;100339.19;6017295;29;20158;-93
2022/09/24 10:49:05;;;;;;;10.27;7.03;;;;;;;16.09;100.00;100343.75;6016359;29;20129;-92
2022/09/24 10:52:09;;;;;;;9.52;6.65;;;;;;;15.94;100.00;100340.97;6013513;29;20049;-92
2022/09/24 10:55:40;;;;;;;9.13;6.57;;;;;;;15.86;100.00;100346.19;6021594;29;20053;-91
2022/09/24 10:59:09;;;;;;;13.13;7.32;;;;;;;15.76;100.00;100342.91;6026722;29;20056;-91
2022/09/24 11:02:12;;;;;;;9.73;7.00;;;;;;;15.67;100.00;100339.41;6026087;29;20478;-91
2022/09/24 11:05:21;;;;;;;10.65;7.13;;;;;;;15.59;100.00;100347.22;6024241;29;20680;-92
2022/09/24 11:09:01;;;;;;;12.07;7.40;;;;;;;15.46;100.00;100346.84;6018539;29;20049;-92
2022/09/24 11:12:24;;;;;;;9.35;7.65;;;;;;;15.34;100.00;100348.09;6019276;29;20038;-92
2022/09/24 11:15:47;;;;;;;11.98;7.57;;;;;;;15.27;100.00;100350.50;6021709;29;20049;-93
2022/09/24 11:19:01;;;;;;;9.77;6.55;;;;;;;15.20;100.00;100346.88;5967016;29;20059;-93
2022/09/24 11:22:09;;;;;;;11.75;7.60;;;;;;;15.19;100.00;100347.88;5961352;29;20053;-93
2022/09/24 11:25:20;;;;;;;9.77;7.13;;;;;;;15.28;100.00;100349.56;5965899;29;20505;-94
2022/09/24 11:28:36;;;;;;;14.10;8.90;;;;;;;15.39;100.00;100351.88;5976229;29;20066;-94
2022/09/24 11:31:55;;;;;;;14.15;7.93;;;;;;;15.33;100.00;100344.69;5976275;29;20050;-93
2022/09/24 11:35:28;;;;;;;13.80;8.35;;;;;;;15.28;100.00;100346.94;5979738;29;20550;-93
2022/09/24 11:38:45;;;;;;;11.82;8.15;;;;;;;15.21;100.00;100349.34;5979931;29;20091;-93
2022/09/24 11:42:21;;;;;;;13.23;8.35;;;;;;;15.16;100.00;100350.78;5976211;29;21025;-92
2022/09/24 11:45:23;;;;;;;12.02;8.40;;;;;;;15.05;100.00;100338.81;5968611;29;20050;-92
2022/09/24 11:48:54;;;;;;;13.60;7.88;;;;;;;15.05;100.00;100349.25;5968550;29;20046;-93
2022/09/24 11:52:05;;;;;;;11.05;7.55;;;;;;;15.04;100.00;100345.03;5974754;29;20169;-93
2022/09/24 11:55:33;;;;;;;9.13;6.70;;;;;;;14.91;100.00;100352.44;5986265;29;20160;-93
2022/09/24 11:58:43;;;;;;;8.82;6.65;;;;;;;14.77;100.00;100336.38;6026815;29;20121;-93
2022/09/24 12:01:52;;;;;;;9.68;6.63;;;;;;;14.75;100.00;100338.31;6021910;29;20133;-93
2022/09/24 12:05:02;;;;;;;10.52;6.68;;;;;;;14.67;100.00;100335.66;6001833;29;20046;-93
2022/09/24 12:08:26;;;;;;;10.35;7.00;;;;;;;14.79;100.00;100344.06;6028901;29;20169;-92
2022/09/24 12:11:42;;;;;;;9.95;6.45;;;;;;;14.96;100.00;100340.59;6022660;29;20156;-93
2022/09/24 12:14:50;;;;;;;13.73;6.82;;;;;;;15.03;100.00;100338.16;6023971;29;20568;-93
2022/09/24 12:18:06;;;;;;;9.45;6.70;;;;;;;15.10;100.00;100336.56;6030642;29;20230;-94
2022/09/24 12:21:16;;;;;;;10.07;6.93;;;;;;;15.19;100.00;100335.63;6018205;29;20042;-93
2022/09/24 12:24:36;;;;;;;9.93;6.53;;;;;;;15.16;100.00;100335.97;6024282;29;20049;-93
2022/09/24 12:27:38;;;;;;;10.02;6.60;;;;;;;15.03;100.00;100331.19;6037207;29;20601;-93
2022/09/24 12:34:39;;;;;;;10.30;6.85;;;;;;;14.74;100.00;100328.06;6020763;29;20061;-93
2022/09/24 12:37:44;;;;;;;10.52;6.32;;;;;;;14.69;100.00;100328.53;6026659;29;20073;-93
2022/09/24 12:41:17;;;;;;;10.88;7.32;;;;;;;14.68;100.00;100336.47;6002476;29;20038;-94
2022/09/24 12:44:38;;;;;;;9.82;6.35;;;;;;;14.63;100.00;100336.94;6017493;29;20050;-93
2022/09/24 12:47:58;;;;;;;;;;;;;;;14.59;100.00;100335.63;6039100;29;20046;-93
2022/09/24 12:51:05;;;;;;;9.82;6.40;;;;;;;14.49;100.00;100333.06;6019461;29;20162;-93
2022/09/24 12:54:26;;;;;;;8.98;6.30;;;;;;;14.34;100.00;100335.41;6001551;29;20054;-93
2022/09/24 12:57:48;;;;;;;8.75;5.97;;;;;;;14.35;100.00;100328.41;6025960;29;20088;-93
2022/09/24 13:00:52;;;;;;;7.88;5.93;;;;;;;14.40;100.00;100329.56;6036466;29;20050;-92
2022/09/24 13:04:17;;;;;;;8.40;6.20;;;;;;;14.46;100.00;100328.16;6020256;29;20045;-94
2022/09/24 13:08:02;;;;;;;8.45;5.97;;;;;;;14.42;100.00;100327.63;6041336;29;20096;-93
2022/09/24 13:11:29;;;;;;;7.20;5.43;;;;;;;14.32;100.00;100326.91;5963930;29;20053;-93
2022/09/24 13:14:33;;;;;;;8.35;5.45;;;;;;;14.21;100.00;100320.16;5963356;29;20528;-93
2022/09/24 13:17:38;;;;;;;8.13;5.50;;;;;;;14.15;100.00;100327.75;5976715;29;20219;-93
2022/09/24 13:20:42;;;;;;;7.13;5.70;;;;;;;14.11;100.00;100315.97;5979181;29;20054;-94
2022/09/24 13:23:52;;;;;;;8.05;5.47;;;;;;;14.10;100.00;100324.78;5976048;29;20057;-94
2022/09/24 13:27:06;;;;;;;8.85;5.95;;;;;;;14.06;100.00;100326.03;5981719;29;20054;-95
2022/09/24 13:30:08;;;;;;;9.30;6.05;;;;;;;14.00;100.00;100324.84;5982971;29;20382;-94
2022/09/24 13:33:30;;;;;;;7.65;5.55;;;;;;;13.95;100.00;100312.25;5988042;29;20087;-94
2022/09/24 13:36:41;;;;;;;8.20;5.88;;;;;;;13.90;100.00;100317.09;5985743;29;20054;-93
2022/09/24 13:40:03;;;;;;;8.83;5.60;;;;;;;13.86;100.00;100314.94;5995753;29;20071;-95
2022/09/24 13:43:26;;;;;;;9.05;6.28;;;;;;;13.88;100.00;100324.22;5979333;29;20129;-95
2022/09/24 13:46:30;;;;;;;10.10;6.47;;;;;;;13.92;100.00;100312.56;6023867;29;20487;-93
2022/09/24 13:49:33;;;;;;;9.23;6.88;;;;;;;13.93;100.00;100311.59;6015803;29;20151;-93
2022/09/24 13:52:41;;;;;;;11.65;6.88;;;;;;;13.95;100.00;100308.84;6019153;29;20144;-93
2022/09/24 13:55:47;;;;;;;9.98;7.05;;;;;;;13.98;100.00;100317.16;6021983;29;20491;-93
2022/09/24 13:58:50;;;;;;;13.60;8.05;;;;;;;14.04;100.00;100314.97;6024986;29;20532;-93
2022/09/24 14:01:52;;;;;;;12.10;7.82;;;;;;;14.05;100.00;100306.19;6027287;29;20124;-94
2022/09/24 14:04:57;;;;;;;10.95;7.90;;;;;;;14.07;100.00;100309.47;6017694;29;20041;-93
2022/09/24 14:08:14;;;;;;;11.23;7.45;;;;;;;14.05;100.00;100308.78;6021471;29;20117;-93
2022/09/24 14:11:27;;;;;;;10.32;7.25;;;;;;;14.02;100.00;100309.91;6022999;29;20101;-92
2022/09/24 14:14:33;;;;;;;11.88;7.55;;;;;;;13.94;100.00;100307.22;6021939;29;20065;-92
2022/09/24 14:17:35;;;;;;;14.80;7.75;;;;;;;13.93;100.00;100305.56;6014984;29;20420;-93
2022/09/24 14:20:37;;;;;;;12.40;8.18;;;;;;;13.92;100.00;100309.16;6024625;29;20049;-93
2022/09/24 14:23:48;;;;;;;10.15;8.07;;;;;;;13.91;100.00;100304.91;6023409;29;20044;-92
2022/09/24 14:26:59;;;;;;;15.25;9.15;;;;;;;13.93;100.00;100301.19;6034130;29;20053;-93
2022/09/24 14:30:05;;;;;;;11.75;8.93;;;;;;;13.93;100.00;100306.38;6018298;29;20041;-92
2022/09/24 14:33:15;;;;;;;15.82;10.05;;;;;;;13.93;100.00;100301.19;6030425;29;20053;-92
2022/09/24 14:36:18;;;;;;;;;;;;;;;13.93;100.00;100306.38;6021769;29;20059;-93
2022/09/24 14:39:24;;;;;;;17.15;9.93;;;;;;;13.88;100.00;100308.63;6015576;29;20004;-93
2022/09/24 14:42:36;;;;;;;19.35;10.25;;;;;;;13.84;100.00;100303.84;6018411;29;20729;-94